Fall River Mills, CA

8:32 AM PDT on October 25, 2014 (GMT -0700)
Mount Shasta | Change Station
CLOSE
Current Station
Airport
Location: Mount Shasta,
Elevation: 3533 ft
Nearby Weather Stations
Active Advisory: High Wind Warning

Elev 3533 ft 41.32 °N, 122.32 °W | Updated 36 minutes ago

Rain
Rain
48 °F
Feels Like 48 °F
N
0
Wind Variable Wind from North

Today
High -- | Low -- °F
--% Chance of Precip.
Yesterday
High -- | Low -- °F
Precip. -- in
7:28 AM 6:10 PM
Waxing Crescent, 3% visible
Pressure 29.80 in
Visibility 10.0 miles
Clouds Few 3200 ft
Mostly Cloudy 4300 ft
Overcast 5500 ft
Dew Point 43 °F
Humidity 83%
Rainfall 0.47 in
Snow Depth Not available.
UV 0 out of 12
Pollen .50 out of 12
Air Quality Not available.
Flu Activity Sporadic
METAR KMHS 251456Z AUTO 00000KT 10SM FEW032 BKN043 OVC055 09/06 A2977 RMK AO2 RAE45 SLP090 P0000 60047 T00890061 53015

More Conditions Fewer Conditions

Pressure 29.80 in
Visibility 10.0 miles
Clouds Few 3200 ft
Mostly Cloudy 4300 ft
Overcast 5500 ft
Dew Point 43 °F
Humidity 83%
Rainfall 0.47 in
Snow Depth Not available.
UV 0 out of 12
Pollen .50 out of 12
Air Quality Not available.
Flu Activity Sporadic
METAR KMHS 251456Z AUTO 00000KT 10SM FEW032 BKN043 OVC055 09/06 A2977 RMK AO2 RAE45 SLP090 P0000 60047 T00890061 53015

More Conditions Fewer Conditions

10-Day Weather Forecast

Almanac

Astronomy

Oct. 25, 2014 Rise Set
Actual Time 7:28 AM PDT 6:10 PM PDT
Civil Twilight 7:00 AM PDT 6:38 PM PDT
Nautical Twilight 6:28 AM PDT 7:10 PM PDT
Astronomical Twilight 5:56 AM PDT 7:42 PM PDT
Moon 9:13 AM PDT 7:36 PM PDT
Length of Visible Light 11h 38m
Length of Day
10h 41m
Tomorrow will be 2m 31s shorter.
Waxing Crescent, 3% of the Moon is Illuminated
Today
Waxing Crescent
Oct 30
First Quarter
Nov 6
Full
Nov 14
Last Quarter
Nov 22
New

Today's Extremes

State Highs State Lows

Community

WunderPhotos

Upload Photos

1,764,878 photos uploaded!

Nearby

Snow Depth

Station Depth Elevation
Adin Mountain 0 in 6200 ft
Independence Creek 0 in 6500 ft
Independence Camp 0 in 7000 ft
Independence Lake 0 in 8450 ft
CSS Lab 1 in 6900 ft

Earthquake Activity

City Distance Mag. Time & Date
Gerlach-Empire, Nevada 106 miles 2.5 7:16 AM PDT
2014-10-23
Minimum magnitude displayed is 2.5.

Coastal Water Temperatures

Place Temperature
No Stations Reporting

Nearby Weather Stations